Table Rock, Nebraska
Current Conditions -  °F | °C
As of 1:53 PM on Monday 24 Nov 2014 (Local Time) from KFNB Reporting Station
Overcast Overcast  
Wind Chill: 26°   Ceiling: 3600
Heat Index: 36°   Visibility: 10mi
Dew Point: 21°   Wind: 18mph
Humidity: 55%   Direction: 320°NW
Pressure: 29.81"   Gusts: 28mph
Location:  40.18°N, 96.1°W
Report Text: KFNB 241953Z AUTO 32016G24KT 10SM OVC036 02/M06 A2981 RMK AO2 PK WND 31027/1903 SLP100 T00221061
Loading
Personal Weather Stations






























Interactive Weather Map New forecast layout! Learn more

10-Day Weather Forecast

Advertisements
Track Severe Weather on mobile